createdAt,value
2023-06-10T00:00:02.579Z,100824.66
2023-06-10T00:02:29.202Z,100827.00
2023-06-10T00:04:56.516Z,100830.91
2023-06-10T00:07:23.001Z,100820.13
2023-06-10T00:09:49.464Z,100825.25
2023-06-10T00:12:17.903Z,100818.81
2023-06-10T00:14:44.341Z,100823.13
2023-06-10T00:17:10.983Z,100824.75
2023-06-10T00:19:39.875Z,100814.53
2023-06-10T00:22:06.460Z,100817.25
2023-06-10T00:24:32.956Z,100812.72
2023-06-10T00:26:59.395Z,100815.66
2023-06-10T00:29:25.996Z,100814.53
2023-06-10T00:31:54.781Z,100816.97
2023-06-10T00:34:21.972Z,100816.16
2023-06-10T00:36:48.390Z,100815.03
2023-06-10T00:39:14.826Z,100820.13
2023-06-10T00:41:41.245Z,100821.41
2023-06-10T00:44:07.725Z,100816.06
2023-06-10T00:46:35.038Z,100823.19
2023-06-10T00:49:02.078Z,100821.63
2023-06-10T00:51:28.787Z,100819.63
2023-06-10T00:53:55.821Z,100819.16
2023-06-10T00:56:23.192Z,100819.72
2023-06-10T00:58:49.691Z,100818.59
2023-06-10T01:01:16.436Z,100813.97
2023-06-10T01:03:43.039Z,100829.22
2023-06-10T01:06:10.842Z,100824.44
2023-06-10T01:08:55.445Z,100818.03
2023-06-10T01:11:30.738Z,100823.06
2023-06-10T01:13:59.191Z,100822.44
2023-06-10T01:16:26.563Z,100829.69
2023-06-10T01:18:53.544Z,100823.22
2023-06-10T01:21:25.745Z,100829.91
2023-06-10T01:23:56.539Z,100827.19
2023-06-10T01:26:31.096Z,100822.56
2023-06-10T01:29:09.591Z,100841.31
2023-06-10T01:31:54.270Z,100836.97
2023-06-10T01:34:24.537Z,100833.25
2023-06-10T01:36:51.784Z,100826.53
2023-06-10T01:39:21.654Z,100832.94
2023-06-10T01:41:49.835Z,100825.06
2023-06-10T01:44:20.752Z,100824.94
2023-06-10T01:46:47.654Z,100828.91
2023-06-10T01:49:14.611Z,100828.09
2023-06-10T01:51:41.334Z,100829.81
2023-06-10T01:54:07.892Z,100823.97
2023-06-10T01:56:34.677Z,100829.38
2023-06-10T01:59:01.258Z,100828.34
2023-06-10T02:01:27.760Z,100835.56
2023-06-10T02:03:54.495Z,100834.91
2023-06-10T02:06:21.226Z,100833.44
2023-06-10T02:08:47.651Z,100838.47
2023-06-10T02:11:14.187Z,100841.03
2023-06-10T02:13:40.892Z,100841.69
2023-06-10T02:16:07.475Z,100839.22
2023-06-10T02:18:34.719Z,100844.41
2023-06-10T02:21:01.188Z,100838.75
2023-06-10T02:23:27.603Z,100837.16
2023-06-10T02:25:54.059Z,100843.59
2023-06-10T02:28:20.679Z,100846.75
2023-06-10T02:30:47.942Z,100845.69
2023-06-10T02:33:15.137Z,100846.72
2023-06-10T02:35:42.074Z,100856.25
2023-06-10T02:38:08.612Z,100858.44
2023-06-10T02:40:35.044Z,100851.38
2023-06-10T02:43:01.518Z,100854.75
2023-06-10T02:45:27.962Z,100849.97
2023-06-10T02:47:54.413Z,100851.84
2023-06-10T02:50:21.051Z,100850.91
2023-06-10T02:52:47.581Z,100852.84
2023-06-10T02:55:14.035Z,100855.84
2023-06-10T02:57:40.843Z,100855.03
2023-06-10T03:00:11.948Z,100854.22
2023-06-10T03:02:39.899Z,100860.56
2023-06-10T03:05:11.301Z,100848.03
2023-06-10T03:07:38.219Z,100852.91
2023-06-10T03:10:05.139Z,100854.25
2023-06-10T03:12:31.595Z,100853.47
2023-06-10T03:14:58.039Z,100849.47
2023-06-10T03:17:24.846Z,100857.59
2023-06-10T03:19:51.295Z,100864.13
2023-06-10T03:22:18.038Z,100865.00
2023-06-10T03:24:44.747Z,100859.97
2023-06-10T03:27:12.001Z,100865.91
2023-06-10T03:29:38.685Z,100870.91
2023-06-10T03:32:05.663Z,100869.34
2023-06-10T03:34:32.150Z,100867.34
2023-06-10T03:36:59.049Z,100867.44
2023-06-10T03:39:25.550Z,100867.13
2023-06-10T03:41:52.321Z,100881.09
2023-06-10T03:44:19.127Z,100876.81
2023-06-10T03:46:46.579Z,100877.78
2023-06-10T03:49:14.650Z,100873.28
2023-06-10T03:51:41.114Z,100874.97
2023-06-10T03:54:07.648Z,100869.53
2023-06-10T03:56:34.089Z,100874.16
2023-06-10T03:59:01.226Z,100877.44
2023-06-10T04:01:28.612Z,100877.81
2023-06-10T04:03:55.439Z,100878.09
2023-06-10T04:06:23.721Z,100881.94
2023-06-10T04:08:50.199Z,100881.72
2023-06-10T04:11:16.699Z,100881.78
2023-06-10T04:13:43.123Z,100885.38
2023-06-10T04:16:09.580Z,100881.31
2023-06-10T04:18:37.213Z,100886.03
2023-06-10T04:21:03.882Z,100895.34
2023-06-10T04:23:30.364Z,100894.59
2023-06-10T04:25:56.756Z,100895.94
2023-06-10T04:28:23.146Z,100905.13
2023-06-10T04:30:49.659Z,100906.59
2023-06-10T04:33:16.061Z,100903.75
2023-06-10T04:35:43.322Z,100903.88
2023-06-10T04:38:09.982Z,100905.94
2023-06-10T04:40:36.491Z,100913.00
2023-06-10T04:43:02.948Z,100912.88
2023-06-10T04:45:30.792Z,100911.41
2023-06-10T04:47:59.180Z,100909.84
2023-06-10T04:50:25.954Z,100901.94
2023-06-10T04:52:52.366Z,100901.81
2023-06-10T04:55:18.917Z,100905.34
2023-06-10T04:57:45.357Z,100902.63
2023-06-10T05:00:12.252Z,100903.00
2023-06-10T05:02:38.731Z,100900.63
2023-06-10T05:05:05.326Z,100897.31
2023-06-10T05:07:31.758Z,100893.53
2023-06-10T05:09:58.237Z,100897.81
2023-06-10T05:12:24.653Z,100902.84
2023-06-10T05:14:51.289Z,100895.59
2023-06-10T05:17:17.736Z,100895.75
2023-06-10T05:19:44.716Z,100905.03
2023-06-10T05:22:11.441Z,100897.25
2023-06-10T05:24:38.015Z,100903.72
2023-06-10T05:27:04.775Z,100901.09
2023-06-10T05:29:31.395Z,100902.16
2023-06-10T05:31:58.804Z,100904.00
2023-06-10T05:34:25.403Z,100902.91
2023-06-10T05:36:52.071Z,100913.59
2023-06-10T05:39:18.548Z,100908.06
2023-06-10T05:41:45.259Z,100903.53
2023-06-10T05:44:14.210Z,100906.59
2023-06-10T05:46:40.927Z,100902.75
2023-06-10T05:49:07.464Z,100901.63
2023-06-10T05:51:33.907Z,100908.81
2023-06-10T05:54:00.479Z,100905.88
2023-06-10T05:56:26.956Z,100909.69
2023-06-10T05:58:53.466Z,100908.84
2023-06-10T06:01:20.049Z,100909.50
2023-06-10T06:03:46.771Z,100906.88
2023-06-10T06:06:13.409Z,100913.06
2023-06-10T06:08:39.833Z,100910.66
2023-06-10T06:11:06.350Z,100917.81
2023-06-10T06:13:32.861Z,100921.41
2023-06-10T06:15:59.408Z,100916.81
2023-06-10T06:18:26.030Z,100922.41
2023-06-10T06:20:52.460Z,100916.88
2023-06-10T06:23:18.913Z,100912.69
2023-06-10T06:25:45.431Z,100921.28
2023-06-10T06:28:11.971Z,100916.88
2023-06-10T06:30:38.439Z,100920.59
2023-06-10T06:33:04.982Z,100921.81
2023-06-10T06:35:33.169Z,100919.59
2023-06-10T06:37:59.949Z,100915.22
2023-06-10T06:40:26.760Z,100920.16
2023-06-10T06:42:53.240Z,100923.69
2023-06-10T06:45:19.663Z,100930.56
2023-06-10T06:47:46.143Z,100931.97
2023-06-10T06:50:12.679Z,100925.94
2023-06-10T06:52:39.375Z,100933.91
2023-06-10T06:55:06.499Z,100926.47
2023-06-10T06:57:33.131Z,100933.28
2023-06-10T06:59:59.703Z,100935.09
2023-06-10T07:02:26.230Z,100926.56
2023-06-10T07:04:56.399Z,100940.31
2023-06-10T07:07:23.148Z,100937.19
2023-06-10T07:09:49.623Z,100931.53
2023-06-10T07:12:16.110Z,100940.47
2023-06-10T07:14:42.734Z,100939.69
2023-06-10T07:17:09.580Z,100937.06
2023-06-10T07:19:36.193Z,100939.25
2023-06-10T07:22:02.772Z,100944.66
2023-06-10T07:24:29.213Z,100941.97
2023-06-10T07:26:55.716Z,100941.75
2023-06-10T07:29:22.289Z,100940.16
2023-06-10T07:31:48.711Z,100945.00
2023-06-10T07:34:15.191Z,100943.59
2023-06-10T07:36:41.607Z,100942.00
2023-06-10T07:39:08.847Z,100939.28
2023-06-10T07:41:35.357Z,100939.25
2023-06-10T07:44:01.835Z,100939.25
2023-06-10T07:46:29.255Z,100944.88
2023-06-10T07:48:55.935Z,100935.38
2023-06-10T07:51:22.826Z,100942.34
2023-06-10T07:53:49.315Z,100940.63
2023-06-10T07:56:15.874Z,100943.81
2023-06-10T07:58:42.347Z,100944.81
2023-06-10T08:01:09.710Z,100944.72
2023-06-10T08:03:36.183Z,100936.81
2023-06-10T08:06:03.064Z,100944.84
2023-06-10T08:08:29.564Z,100940.75
2023-06-10T08:10:56.118Z,100937.38
2023-06-10T08:13:22.550Z,100932.44
2023-06-10T08:15:51.510Z,100933.56
2023-06-10T08:18:18.164Z,100934.75
2023-06-10T08:20:44.777Z,100941.59
2023-06-10T08:23:11.224Z,100941.72
2023-06-10T08:25:37.670Z,100943.88
2023-06-10T08:28:04.115Z,100943.22
2023-06-10T08:30:31.316Z,100941.94
2023-06-10T08:32:57.838Z,100944.94
2023-06-10T08:35:24.674Z,100943.84
2023-06-10T08:37:51.157Z,100943.75
2023-06-10T08:40:17.774Z,100950.44
2023-06-10T08:42:49.916Z,100947.88
2023-06-10T08:45:19.845Z,100942.47
2023-06-10T08:47:47.843Z,100942.13
2023-06-10T08:50:16.140Z,100944.91
2023-06-10T08:52:44.767Z,100942.03
2023-06-10T08:55:12.439Z,100944.72
2023-06-10T08:57:39.289Z,100933.84
2023-06-10T09:00:06.788Z,100942.50
2023-06-10T09:02:36.387Z,100937.25
2023-06-10T09:05:03.958Z,100938.47
2023-06-10T09:07:32.576Z,100941.41
2023-06-10T09:10:00.827Z,100943.03
2023-06-10T09:12:27.264Z,100944.03
2023-06-10T09:14:53.713Z,100946.75
2023-06-10T09:17:20.351Z,100943.63
2023-06-10T09:19:48.730Z,100946.94
2023-06-10T09:22:15.466Z,100936.50
2023-06-10T09:24:42.422Z,100936.16
2023-06-10T09:27:09.896Z,100932.38
2023-06-10T09:29:48.307Z,100926.75
2023-06-10T09:32:15.574Z,100931.84
2023-06-10T09:34:42.565Z,100937.41
2023-06-10T09:37:13.040Z,100931.84
2023-06-10T09:39:39.652Z,100921.91
2023-06-10T09:42:26.633Z,100934.06
2023-06-10T09:44:53.878Z,100930.34
2023-06-10T09:47:23.789Z,100929.34
2023-06-10T09:49:51.678Z,100931.28
2023-06-10T09:52:28.992Z,100923.50
2023-06-10T09:55:00.580Z,100923.66
2023-06-10T09:57:30.734Z,100916.69
2023-06-10T09:59:57.171Z,100901.84
2023-06-10T10:02:23.636Z,100912.22
2023-06-10T10:04:50.283Z,100911.47
2023-06-10T10:07:16.846Z,100915.84
2023-06-10T10:09:43.793Z,100910.41
2023-06-10T10:12:12.311Z,100908.50
2023-06-10T10:14:39.908Z,100905.78
2023-06-10T10:17:14.687Z,100913.94
2023-06-10T10:19:48.355Z,100904.78
2023-06-10T10:22:42.111Z,100910.75
2023-06-10T10:25:13.315Z,100905.25
2023-06-10T10:27:40.143Z,100899.81
2023-06-10T10:30:10.987Z,100906.88
2023-06-10T10:32:49.981Z,100902.97
2023-06-10T10:35:19.305Z,100911.94
2023-06-10T10:37:47.599Z,100908.88
2023-06-10T10:40:15.648Z,100907.72
2023-06-10T10:42:42.804Z,100906.69
2023-06-10T10:45:11.055Z,100902.56
2023-06-10T10:47:39.624Z,100908.50
2023-06-10T10:50:29.450Z,100898.19
2023-06-10T10:53:00.320Z,100906.03
2023-06-10T10:55:27.673Z,100895.97
2023-06-10T10:58:08.404Z,100895.88
2023-06-10T11:00:44.394Z,100883.81
2023-06-10T11:03:17.292Z,100891.16
2023-06-10T11:05:49.048Z,100887.72
2023-06-10T11:08:36.111Z,100885.56
2023-06-10T11:11:19.698Z,100882.66
2023-06-10T11:14:07.933Z,100886.69
2023-06-10T11:16:44.826Z,100875.78
2023-06-10T11:19:32.686Z,100876.59
2023-06-10T11:22:01.005Z,100875.94
2023-06-10T11:24:27.748Z,100881.91
2023-06-10T11:26:54.275Z,100876.06
2023-06-10T11:29:21.679Z,100881.88
2023-06-10T11:31:52.628Z,100880.31
2023-06-10T11:34:24.696Z,100879.13
2023-06-10T11:36:52.524Z,100872.78
2023-06-10T11:39:21.080Z,100872.78
2023-06-10T11:41:47.801Z,100871.78
2023-06-10T11:44:18.222Z,100856.50
2023-06-10T11:46:46.734Z,100862.41
2023-06-10T11:49:13.377Z,100860.66
2023-06-10T11:51:42.555Z,100865.84
2023-06-10T11:54:12.046Z,100855.38
2023-06-10T11:56:38.458Z,100858.19
2023-06-10T11:59:08.360Z,100858.50
2023-06-10T12:01:43.166Z,100861.66
2023-06-10T12:04:16.667Z,100860.94
2023-06-10T12:06:50.158Z,100859.41
2023-06-10T12:09:30.551Z,100861.56
2023-06-10T12:12:02.872Z,100862.81
2023-06-10T12:14:51.073Z,100851.97
2023-06-10T12:17:17.738Z,100851.41
2023-06-10T12:19:44.327Z,100843.16
2023-06-10T12:22:10.774Z,100853.47
2023-06-10T12:24:45.818Z,100853.06
2023-06-10T12:27:13.251Z,100850.69
2023-06-10T12:29:39.702Z,100852.47
2023-06-10T12:32:08.443Z,100854.22
2023-06-10T12:34:37.630Z,100857.81
2023-06-10T12:37:06.918Z,100845.34
2023-06-10T12:39:36.426Z,100846.75
2023-06-10T12:42:04.278Z,100851.00
2023-06-10T12:44:35.397Z,100850.19
2023-06-10T12:47:08.084Z,100841.38
2023-06-10T12:49:34.540Z,100845.25
2023-06-10T12:52:01.146Z,100838.28
2023-06-10T12:54:27.729Z,100835.91
2023-06-10T12:56:54.185Z,100842.41
2023-06-10T12:59:20.709Z,100830.50
2023-06-10T13:01:53.524Z,100839.22
2023-06-10T13:04:20.603Z,100833.59
2023-06-10T13:06:48.341Z,100839.44
2023-06-10T13:09:15.026Z,100837.25
2023-06-10T13:11:41.848Z,100832.16
2023-06-10T13:14:08.277Z,100827.84
2023-06-10T13:16:34.765Z,100827.75
2023-06-10T13:19:03.705Z,100826.91
2023-06-10T13:21:30.177Z,100826.75
2023-06-10T13:23:56.763Z,100824.47
2023-06-10T13:26:23.455Z,100818.88
2023-06-10T13:28:49.874Z,100819.69
2023-06-10T13:31:16.685Z,100825.34
2023-06-10T13:33:44.703Z,100815.34
2023-06-10T13:36:11.849Z,100817.50
2023-06-10T13:38:38.292Z,100805.19
2023-06-10T13:41:05.134Z,100815.94
2023-06-10T13:43:31.691Z,100813.31
2023-06-10T13:45:58.087Z,100797.88
2023-06-10T13:48:24.619Z,100800.38
2023-06-10T13:50:51.168Z,100797.22
2023-06-10T13:53:17.732Z,100803.59
2023-06-10T13:55:44.234Z,100799.50
2023-06-10T13:58:10.692Z,100802.38
2023-06-10T14:00:37.091Z,100800.50
2023-06-10T14:03:04.685Z,100803.47
2023-06-10T14:05:32.287Z,100803.53
2023-06-10T14:07:58.851Z,100796.59
2023-06-10T14:10:25.451Z,100803.88
2023-06-10T14:12:52.441Z,100800.97
2023-06-10T14:15:19.041Z,100798.91
2023-06-10T14:17:45.608Z,100806.56
2023-06-10T14:20:12.817Z,100806.31
2023-06-10T14:22:39.270Z,100810.72
2023-06-10T14:25:06.519Z,100810.97
2023-06-10T14:27:33.126Z,100805.81
2023-06-10T14:29:59.805Z,100804.69
2023-06-10T14:32:26.383Z,100801.69
2023-06-10T14:34:52.861Z,100798.06
2023-06-10T14:37:19.412Z,100801.09
2023-06-10T14:39:45.922Z,100794.56
2023-06-10T14:42:12.445Z,100795.28
2023-06-10T14:44:38.836Z,100797.09
2023-06-10T14:47:05.666Z,100794.88
2023-06-10T14:49:32.138Z,100794.06
2023-06-10T14:51:58.584Z,100788.88
2023-06-10T14:54:25.001Z,100787.16
2023-06-10T14:56:51.464Z,100788.19
2023-06-10T14:59:20.992Z,100782.34
2023-06-10T15:01:48.111Z,100776.50
2023-06-10T15:04:14.832Z,100763.34
2023-06-10T15:06:42.530Z,100767.91
2023-06-10T15:09:09.086Z,100766.91
2023-06-10T15:11:35.656Z,100773.22
2023-06-10T15:14:02.044Z,100768.22
2023-06-10T15:16:28.564Z,100767.56
2023-06-10T15:18:55.028Z,100759.16
2023-06-10T15:21:21.424Z,100763.53
2023-06-10T15:23:48.558Z,100762.91
2023-06-10T15:26:15.209Z,100763.63
2023-06-10T15:28:41.668Z,100755.59
2023-06-10T15:31:09.161Z,100755.13
2023-06-10T15:33:35.684Z,100763.06
2023-06-10T15:36:02.523Z,100763.75
2023-06-10T15:38:28.992Z,100753.75
2023-06-10T15:40:56.679Z,100756.91
2023-06-10T15:43:23.171Z,100753.78
2023-06-10T15:45:49.678Z,100754.16
2023-06-10T15:48:16.254Z,100742.50
2023-06-10T15:50:42.793Z,100752.69
2023-06-10T15:53:09.308Z,100740.25
2023-06-10T15:55:35.787Z,100751.81
2023-06-10T15:58:04.778Z,100754.09
2023-06-10T16:00:31.294Z,100751.16
2023-06-10T16:02:57.818Z,100744.34
2023-06-10T16:05:24.379Z,100736.19
2023-06-10T16:07:50.807Z,100740.81
2023-06-10T16:10:17.292Z,100739.75
2023-06-10T16:12:43.823Z,100738.72
2023-06-10T16:15:11.180Z,100740.00
2023-06-10T16:17:38.996Z,100733.38
2023-06-10T16:20:06.621Z,100725.34
2023-06-10T16:22:33.475Z,100724.06
2023-06-10T16:24:59.917Z,100726.75
2023-06-10T16:27:26.721Z,100727.88
2023-06-10T16:29:56.274Z,100728.81
2023-06-10T16:32:22.746Z,100732.44
2023-06-10T16:34:49.235Z,100731.22
2023-06-10T16:37:16.078Z,100731.44
2023-06-10T16:39:42.507Z,100730.72
2023-06-10T16:42:09.026Z,100739.66
2023-06-10T16:44:35.464Z,100731.63
2023-06-10T16:47:01.963Z,100729.41
2023-06-10T16:49:28.375Z,100727.53
2023-06-10T16:51:54.787Z,100727.84
2023-06-10T16:54:21.197Z,100730.03
2023-06-10T16:56:47.728Z,100734.13
2023-06-10T16:59:14.258Z,100734.22
2023-06-10T17:01:40.885Z,100734.53
2023-06-10T17:04:07.429Z,100730.63
2023-06-10T17:06:34.025Z,100732.66
2023-06-10T17:09:00.482Z,100736.56
2023-06-10T17:11:27.032Z,100742.00
2023-06-10T17:13:53.624Z,100741.91
2023-06-10T17:16:20.135Z,100746.81
2023-06-10T17:18:46.803Z,100740.41
2023-06-10T17:21:13.313Z,100744.78
2023-06-10T17:23:39.779Z,100741.78
2023-06-10T17:26:06.226Z,100738.88
2023-06-10T17:28:32.733Z,100735.47
2023-06-10T17:30:59.224Z,100738.75
2023-06-10T17:33:25.879Z,100737.16
2023-06-10T17:35:52.456Z,100739.25
2023-06-10T17:38:21.027Z,100740.81
2023-06-10T17:40:47.576Z,100741.09
2023-06-10T17:43:14.055Z,100740.56
2023-06-10T17:45:40.606Z,100749.78
2023-06-10T17:48:07.158Z,100749.28
2023-06-10T17:50:33.751Z,100756.91
2023-06-10T17:53:00.310Z,100752.16
2023-06-10T17:55:26.722Z,100754.50
2023-06-10T17:57:53.228Z,100758.56
2023-06-10T18:00:20.021Z,100761.66
2023-06-10T18:02:46.509Z,100761.47
2023-06-10T18:05:13.394Z,100763.44
2023-06-10T18:07:40.139Z,100761.59
2023-06-10T18:10:07.072Z,100766.72
2023-06-10T18:12:33.697Z,100757.09
2023-06-10T18:15:00.174Z,100772.28
2023-06-10T18:17:26.724Z,100767.97
2023-06-10T18:19:53.182Z,100772.88
2023-06-10T18:22:19.880Z,100773.94
2023-06-10T18:24:46.330Z,100774.41
2023-06-10T18:27:16.396Z,100774.16
2023-06-10T18:29:43.523Z,100785.84
2023-06-10T18:32:10.632Z,100778.09
2023-06-10T18:34:37.388Z,100781.22
2023-06-10T18:37:04.552Z,100780.91
2023-06-10T18:39:31.082Z,100784.19
2023-06-10T18:41:57.536Z,100775.03
2023-06-10T18:44:24.004Z,100782.13
2023-06-10T18:46:50.588Z,100784.97
2023-06-10T18:49:16.979Z,100787.13
2023-06-10T18:51:43.427Z,100790.69
2023-06-10T18:54:09.934Z,100789.06
2023-06-10T18:56:36.532Z,100790.00
2023-06-10T18:59:03.097Z,100790.53
2023-06-10T19:01:29.763Z,100790.56
2023-06-10T19:03:56.805Z,100803.56
2023-06-10T19:06:23.621Z,100802.81
2023-06-10T19:08:50.109Z,100809.91
2023-06-10T19:11:17.306Z,100806.94
2023-06-10T19:13:43.861Z,100815.03
2023-06-10T19:16:10.586Z,100811.38
2023-06-10T19:18:37.314Z,100813.91
2023-06-10T19:21:06.997Z,100816.13
2023-06-10T19:23:34.736Z,100819.16
2023-06-10T19:26:01.666Z,100819.22
2023-06-10T19:28:28.185Z,100824.88
2023-06-10T19:30:54.619Z,100834.09
2023-06-10T19:33:21.150Z,100828.47
2023-06-10T19:35:47.654Z,100830.66
2023-06-10T19:38:14.088Z,100827.72
2023-06-10T19:40:40.595Z,100836.66
2023-06-10T19:43:07.334Z,100841.03
2023-06-10T19:45:33.738Z,100841.59
2023-06-10T19:48:00.274Z,100848.34
2023-06-10T19:50:26.788Z,100849.19
2023-06-10T19:52:53.258Z,100854.63
2023-06-10T19:55:19.738Z,100847.38
2023-06-10T19:57:46.242Z,100853.56
2023-06-10T20:00:13.039Z,100855.22
2023-06-10T20:02:39.661Z,100850.13
2023-06-10T20:05:06.400Z,100861.41
2023-06-10T20:07:32.821Z,100858.47
2023-06-10T20:09:59.309Z,100849.91
2023-06-10T20:12:25.827Z,100866.34
2023-06-10T20:14:52.257Z,100864.47
2023-06-10T20:17:18.652Z,100868.25
2023-06-10T20:19:49.090Z,100866.38
2023-06-10T20:22:17.096Z,100865.03
2023-06-10T20:24:43.590Z,100877.41
2023-06-10T20:27:10.955Z,100876.84
2023-06-10T20:29:37.580Z,100884.91
2023-06-10T20:32:04.221Z,100880.56
2023-06-10T20:34:30.727Z,100881.38
2023-06-10T20:36:57.882Z,100881.31
2023-06-10T20:39:25.896Z,100888.25
2023-06-10T20:41:52.443Z,100892.00
2023-06-10T20:44:18.835Z,100884.44
2023-06-10T20:46:45.419Z,100897.63
2023-06-10T20:49:14.324Z,100886.88
2023-06-10T20:51:41.893Z,100895.97
2023-06-10T20:54:08.309Z,100895.97
2023-06-10T20:56:34.678Z,100895.94
2023-06-10T20:59:01.409Z,100891.94
2023-06-10T21:01:27.899Z,100892.75
2023-06-10T21:03:54.601Z,100899.41
2023-06-10T21:06:21.952Z,100908.50
2023-06-10T21:08:48.584Z,100902.28
2023-06-10T21:11:15.041Z,100900.63
2023-06-10T21:13:41.613Z,100904.69
2023-06-10T21:16:08.165Z,100905.75
2023-06-10T21:18:35.806Z,100907.03
2023-06-10T21:21:02.337Z,100914.50
2023-06-10T21:23:28.772Z,100915.03
2023-06-10T21:25:55.226Z,100909.41
2023-06-10T21:28:21.748Z,100915.31
2023-06-10T21:30:48.130Z,100916.75
2023-06-10T21:33:14.557Z,100927.81
2023-06-10T21:35:41.265Z,100920.44
2023-06-10T21:38:07.749Z,100923.59
2023-06-10T21:40:34.145Z,100926.59
2023-06-10T21:43:00.648Z,100920.75
2023-06-10T21:45:27.089Z,100919.09
2023-06-10T21:47:53.610Z,100921.19
2023-06-10T21:50:20.125Z,100913.88
2023-06-10T21:52:46.552Z,100911.91
2023-06-10T21:55:13.192Z,100919.41
2023-06-10T21:57:39.997Z,100918.56
2023-06-10T22:00:12.691Z,100917.47
2023-06-10T22:02:40.500Z,100915.19
2023-06-10T22:05:08.697Z,100911.16
2023-06-10T22:07:36.172Z,100914.81
2023-06-10T22:10:04.443Z,100911.59
2023-06-10T22:12:31.306Z,100913.66
2023-06-10T22:14:57.804Z,100917.28
2023-06-10T22:17:24.322Z,100911.97
2023-06-10T22:19:50.900Z,100917.38
2023-06-10T22:22:18.462Z,100920.63
2023-06-10T22:24:50.549Z,100922.00
2023-06-10T22:27:17.132Z,100925.28
2023-06-10T22:29:43.562Z,100923.97
2023-06-10T22:32:10.063Z,100920.19
2023-06-10T22:34:36.532Z,100920.44
2023-06-10T22:37:03.017Z,100919.09
2023-06-10T22:39:29.434Z,100924.47
2023-06-10T22:41:55.953Z,100922.94
2023-06-10T22:44:22.607Z,100921.78
2023-06-10T22:46:49.121Z,100922.34
2023-06-10T22:49:16.478Z,100930.94
2023-06-10T22:51:44.285Z,100926.72
2023-06-10T22:54:11.031Z,100933.69
2023-06-10T22:56:37.479Z,100928.91
2023-06-10T22:59:03.935Z,100923.81
2023-06-10T23:01:30.997Z,100919.56
2023-06-10T23:03:58.309Z,100914.66
2023-06-10T23:06:24.996Z,100920.97
2023-06-10T23:08:51.433Z,100923.03
2023-06-10T23:11:17.812Z,100925.66
2023-06-10T23:13:44.357Z,100930.78
2023-06-10T23:16:10.886Z,100928.75
2023-06-10T23:18:37.616Z,100924.50
2023-06-10T23:21:04.238Z,100921.50
2023-06-10T23:23:34.868Z,100928.44
2023-06-10T23:26:02.403Z,100926.22
2023-06-10T23:28:28.876Z,100937.22
2023-06-10T23:30:55.978Z,100940.75
2023-06-10T23:33:23.584Z,100933.03
2023-06-10T23:35:50.339Z,100936.56
2023-06-10T23:38:16.872Z,100939.59
2023-06-10T23:40:43.323Z,100933.22
2023-06-10T23:43:11.319Z,100935.91
2023-06-10T23:45:37.818Z,100939.69
2023-06-10T23:48:04.927Z,100938.66
2023-06-10T23:50:31.642Z,100935.16
2023-06-10T23:52:58.075Z,100934.66
2023-06-10T23:55:25.395Z,100933.00
2023-06-10T23:57:51.999Z,100941.06
